sensor_id;sensor_type;location;lat;lon;timestamp;pressure;altitude;pressure_sealevel;temperature;humidity
20793;BME280;10556;-33.662;151.094;2024-01-27T00:03:01;98396.03;;;22.56;100.00
20793;BME280;10556;-33.662;151.094;2024-01-27T00:08:04;98396.69;;;22.36;100.00
20793;BME280;10556;-33.662;151.094;2024-01-27T00:13:08;98382.81;;;22.29;100.00
20793;BME280;10556;-33.662;151.094;2024-01-27T00:18:11;98407.50;;;22.25;100.00
20793;BME280;10556;-33.662;151.094;2024-01-27T00:23:13;98392.72;;;22.25;100.00
20793;BME280;10556;-33.662;151.094;2024-01-27T00:28:18;98394.53;;;22.25;100.00
20793;BME280;10556;-33.662;151.094;2024-01-27T00:33:21;98402.47;;;22.23;100.00
20793;BME280;10556;-33.662;151.094;2024-01-27T00:38:23;98397.13;;;22.25;100.00
20793;BME280;10556;-33.662;151.094;2024-01-27T00:43:28;98399.19;;;21.75;100.00
20793;BME280;10556;-33.662;151.094;2024-01-27T00:48:30;98397.56;;;21.36;100.00
20793;BME280;10556;-33.662;151.094;2024-01-27T00:53:33;98407.19;;;21.11;100.00
20793;BME280;10556;-33.662;151.094;2024-01-27T00:58:37;98407.72;;;21.14;100.00
20793;BME280;10556;-33.662;151.094;2024-01-27T01:03:39;98403.00;;;21.18;100.00
20793;BME280;10556;-33.662;151.094;2024-01-27T01:08:42;98397.81;;;21.18;100.00
20793;BME280;10556;-33.662;151.094;2024-01-27T01:13:46;98397.00;;;21.17;100.00
20793;BME280;10556;-33.662;151.094;2024-01-27T01:18:51;98397.88;;;21.41;100.00
20793;BME280;10556;-33.662;151.094;2024-01-27T01:23:54;98393.63;;;21.79;100.00
20793;BME280;10556;-33.662;151.094;2024-01-27T01:28:58;98396.47;;;22.23;100.00
20793;BME280;10556;-33.662;151.094;2024-01-27T01:34:02;98396.72;;;22.50;100.00
20793;BME280;10556;-33.662;151.094;2024-01-27T01:39:04;98391.94;;;22.62;100.00
20793;BME280;10556;-33.662;151.094;2024-01-27T01:44:09;98397.41;;;22.67;100.00
20793;BME280;10556;-33.662;151.094;2024-01-27T01:49:12;98384.09;;;22.70;100.00
20793;BME280;10556;-33.662;151.094;2024-01-27T01:54:14;98384.75;;;22.87;100.00
20793;BME280;10556;-33.662;151.094;2024-01-27T01:59:22;98368.94;;;23.18;100.00
20793;BME280;10556;-33.662;151.094;2024-01-27T02:04:25;98360.75;;;23.65;100.00
20793;BME280;10556;-33.662;151.094;2024-01-27T02:09:27;98347.78;;;24.07;100.00
20793;BME280;10556;-33.662;151.094;2024-01-27T02:14:34;98348.25;;;23.96;100.00
20793;BME280;10556;-33.662;151.094;2024-01-27T02:19:36;98335.56;;;24.29;100.00
20793;BME280;10556;-33.662;151.094;2024-01-27T02:24:42;98319.59;;;24.66;100.00
20793;BME280;10556;-33.662;151.094;2024-01-27T02:29:44;98322.31;;;24.86;100.00
20793;BME280;10556;-33.662;151.094;2024-01-27T02:34:47;98319.88;;;24.78;100.00
20793;BME280;10556;-33.662;151.094;2024-01-27T02:39:51;98310.38;;;24.70;100.00
20793;BME280;10556;-33.662;151.094;2024-01-27T02:44:54;98310.03;;;24.46;100.00
20793;BME280;10556;-33.662;151.094;2024-01-27T02:49:56;98322.72;;;24.06;100.00
20793;BME280;10556;-33.662;151.094;2024-01-27T02:55:01;98316.66;;;23.78;100.00
20793;BME280;10556;-33.662;151.094;2024-01-27T03:00:03;98304.22;;;23.73;100.00
20793;BME280;10556;-33.662;151.094;2024-01-27T03:05:07;98297.25;;;23.80;100.00
20793;BME280;10556;-33.662;151.094;2024-01-27T03:10:14;98299.22;;;24.00;100.00
20793;BME280;10556;-33.662;151.094;2024-01-27T03:15:17;98276.84;;;24.05;100.00
20793;BME280;10556;-33.662;151.094;2024-01-27T03:20:19;98272.09;;;24.37;100.00
20793;BME280;10556;-33.662;151.094;2024-01-27T03:25:24;98259.66;;;24.32;100.00
20793;BME280;10556;-33.662;151.094;2024-01-27T03:30:27;98263.50;;;24.15;100.00
20793;BME280;10556;-33.662;151.094;2024-01-27T03:35:30;98258.47;;;23.85;100.00
20793;BME280;10556;-33.662;151.094;2024-01-27T03:40:34;98259.47;;;23.84;100.00
20793;BME280;10556;-33.662;151.094;2024-01-27T03:45:37;98248.69;;;23.87;100.00
20793;BME280;10556;-33.662;151.094;2024-01-27T03:50:39;98250.25;;;23.82;100.00
20793;BME280;10556;-33.662;151.094;2024-01-27T03:55:43;98247.09;;;23.65;100.00
20793;BME280;10556;-33.662;151.094;2024-01-27T04:00:46;98254.66;;;23.24;100.00
20793;BME280;10556;-33.662;151.094;2024-01-27T04:05:48;98245.97;;;22.81;100.00
20793;BME280;10556;-33.662;151.094;2024-01-27T04:10:53;98236.44;;;22.59;100.00
20793;BME280;10556;-33.662;151.094;2024-01-27T04:15:55;98235.03;;;22.56;100.00
20793;BME280;10556;-33.662;151.094;2024-01-27T04:20:58;98225.63;;;22.41;100.00
20793;BME280;10556;-33.662;151.094;2024-01-27T04:26:02;98221.03;;;22.13;100.00
20793;BME280;10556;-33.662;151.094;2024-01-27T04:31:05;98229.63;;;22.14;100.00
20793;BME280;10556;-33.662;151.094;2024-01-27T04:36:08;98217.38;;;22.37;100.00
20793;BME280;10556;-33.662;151.094;2024-01-27T04:41:12;98190.59;;;22.81;100.00
20793;BME280;10556;-33.662;151.094;2024-01-27T04:46:15;98210.38;;;23.18;100.00
20793;BME280;10556;-33.662;151.094;2024-01-27T04:51:17;98210.94;;;23.49;100.00
20793;BME280;10556;-33.662;151.094;2024-01-27T04:56:25;98189.34;;;23.76;100.00
20793;BME280;10556;-33.662;151.094;2024-01-27T05:01:27;98189.00;;;23.58;100.00
20793;BME280;10556;-33.662;151.094;2024-01-27T05:06:30;98174.94;;;23.74;100.00
20793;BME280;10556;-33.662;151.094;2024-01-27T05:11:35;98169.66;;;23.95;100.00
20793;BME280;10556;-33.662;151.094;2024-01-27T05:16:41;98169.06;;;23.93;100.00
20793;BME280;10556;-33.662;151.094;2024-01-27T05:21:46;98167.91;;;23.74;100.00
20793;BME280;10556;-33.662;151.094;2024-01-27T05:26:53;98154.22;;;23.87;100.00
20793;BME280;10556;-33.662;151.094;2024-01-27T05:31:55;98172.41;;;23.59;100.00
20793;BME280;10556;-33.662;151.094;2024-01-27T05:36:58;98170.53;;;22.75;100.00
20793;BME280;10556;-33.662;151.094;2024-01-27T05:42:03;98131.72;;;22.37;100.00
20793;BME280;10556;-33.662;151.094;2024-01-27T05:47:06;98129.63;;;22.98;100.00
20793;BME280;10556;-33.662;151.094;2024-01-27T05:52:08;98080.16;;;23.89;100.00
20793;BME280;10556;-33.662;151.094;2024-01-27T05:57:13;98106.63;;;25.01;100.00
20793;BME280;10556;-33.662;151.094;2024-01-27T06:02:15;98084.75;;;24.89;100.00
20793;BME280;10556;-33.662;151.094;2024-01-27T06:07:18;98105.25;;;25.38;100.00
20793;BME280;10556;-33.662;151.094;2024-01-27T06:12:23;98087.78;;;25.26;100.00
20793;BME280;10556;-33.662;151.094;2024-01-27T06:17:28;98076.75;;;25.04;100.00
20793;BME280;10556;-33.662;151.094;2024-01-27T06:22:30;98082.03;;;24.50;100.00
20793;BME280;10556;-33.662;151.094;2024-01-27T06:27:35;98065.38;;;23.97;100.00
20793;BME280;10556;-33.662;151.094;2024-01-27T06:32:38;98054.97;;;24.44;100.00
20793;BME280;10556;-33.662;151.094;2024-01-27T06:37:40;98068.31;;;25.08;100.00
20793;BME280;10556;-33.662;151.094;2024-01-27T06:42:44;98065.50;;;25.23;100.00
20793;BME280;10556;-33.662;151.094;2024-01-27T06:47:47;98085.25;;;24.45;100.00
20793;BME280;10556;-33.662;151.094;2024-01-27T06:52:49;98049.38;;;24.54;100.00
20793;BME280;10556;-33.662;151.094;2024-01-27T06:57:54;98072.69;;;24.82;100.00
20793;BME280;10556;-33.662;151.094;2024-01-27T07:02:58;98050.69;;;24.17;100.00
20793;BME280;10556;-33.662;151.094;2024-01-27T07:08:01;98053.25;;;23.76;100.00
20793;BME280;10556;-33.662;151.094;2024-01-27T07:13:08;98064.09;;;23.52;100.00
20793;BME280;10556;-33.662;151.094;2024-01-27T07:18:11;98070.34;;;23.36;100.00
20793;BME280;10556;-33.662;151.094;2024-01-27T07:23:20;98086.19;;;23.41;100.00
20793;BME280;10556;-33.662;151.094;2024-01-27T07:28:24;98084.88;;;23.45;100.00
20793;BME280;10556;-33.662;151.094;2024-01-27T07:33:27;98086.28;;;23.48;100.00
20793;BME280;10556;-33.662;151.094;2024-01-27T07:38:29;98078.47;;;23.48;100.00
20793;BME280;10556;-33.662;151.094;2024-01-27T07:43:34;98101.78;;;23.34;100.00
20793;BME280;10556;-33.662;151.094;2024-01-27T07:48:39;98109.00;;;23.18;100.00
20793;BME280;10556;-33.662;151.094;2024-01-27T07:53:41;98128.31;;;23.09;100.00
20793;BME280;10556;-33.662;151.094;2024-01-27T07:58:46;98152.41;;;22.96;100.00
20793;BME280;10556;-33.662;151.094;2024-01-27T08:03:49;98150.09;;;22.86;100.00
20793;BME280;10556;-33.662;151.094;2024-01-27T08:08:52;98162.09;;;22.87;100.00
20793;BME280;10556;-33.662;151.094;2024-01-27T08:13:56;98161.75;;;22.76;100.00
20793;BME280;10556;-33.662;151.094;2024-01-27T08:19:02;98176.53;;;22.75;100.00
20793;BME280;10556;-33.662;151.094;2024-01-27T08:24:05;98181.81;;;22.82;100.00
20793;BME280;10556;-33.662;151.094;2024-01-27T08:29:09;98191.75;;;22.78;100.00
20793;BME280;10556;-33.662;151.094;2024-01-27T08:34:12;98208.91;;;22.73;100.00
20793;BME280;10556;-33.662;151.094;2024-01-27T08:39:14;98216.72;;;22.65;100.00
20793;BME280;10556;-33.662;151.094;2024-01-27T08:44:19;98219.06;;;22.59;100.00
20793;BME280;10556;-33.662;151.094;2024-01-27T08:49:22;98220.69;;;22.46;100.00
20793;BME280;10556;-33.662;151.094;2024-01-27T08:54:25;98239.66;;;22.32;100.00
20793;BME280;10556;-33.662;151.094;2024-01-27T08:59:29;98236.19;;;22.25;100.00
20793;BME280;10556;-33.662;151.094;2024-01-27T09:04:35;98249.41;;;22.15;100.00
20793;BME280;10556;-33.662;151.094;2024-01-27T09:09:38;98256.44;;;22.06;100.00
20793;BME280;10556;-33.662;151.094;2024-01-27T09:14:42;98284.38;;;22.04;100.00
20793;BME280;10556;-33.662;151.094;2024-01-27T09:19:45;98287.50;;;22.00;100.00
20793;BME280;10556;-33.662;151.094;2024-01-27T09:24:47;98294.47;;;21.99;100.00
20793;BME280;10556;-33.662;151.094;2024-01-27T09:29:52;98295.31;;;21.92;100.00
20793;BME280;10556;-33.662;151.094;2024-01-27T09:34:55;98312.03;;;21.89;100.00
20793;BME280;10556;-33.662;151.094;2024-01-27T09:39:57;98313.97;;;21.87;100.00
20793;BME280;10556;-33.662;151.094;2024-01-27T09:45:05;98295.19;;;21.85;100.00
20793;BME280;10556;-33.662;151.094;2024-01-27T09:50:11;98322.94;;;21.85;100.00
20793;BME280;10556;-33.662;151.094;2024-01-27T09:55:13;98327.47;;;21.83;100.00
20793;BME280;10556;-33.662;151.094;2024-01-27T10:00:27;98326.69;;;21.82;100.00
20793;BME280;10556;-33.662;151.094;2024-01-27T10:05:30;98328.91;;;21.85;100.00
20793;BME280;10556;-33.662;151.094;2024-01-27T10:10:33;98329.53;;;21.87;100.00
20793;BME280;10556;-33.662;151.094;2024-01-27T10:15:37;98337.81;;;21.91;100.00
20793;BME280;10556;-33.662;151.094;2024-01-27T10:20:40;98345.47;;;21.84;100.00
20793;BME280;10556;-33.662;151.094;2024-01-27T10:25:44;98352.28;;;21.85;100.00
20793;BME280;10556;-33.662;151.094;2024-01-27T10:30:48;98351.09;;;21.88;100.00
20793;BME280;10556;-33.662;151.094;2024-01-27T10:35:58;98361.66;;;21.86;100.00
20793;BME280;10556;-33.662;151.094;2024-01-27T10:41:01;98366.66;;;21.88;100.00
20793;BME280;10556;-33.662;151.094;2024-01-27T10:46:09;98384.22;;;21.86;100.00
20793;BME280;10556;-33.662;151.094;2024-01-27T10:51:11;98404.78;;;21.87;100.00
20793;BME280;10556;-33.662;151.094;2024-01-27T10:56:18;98403.78;;;21.88;100.00
20793;BME280;10556;-33.662;151.094;2024-01-27T11:01:23;98412.22;;;21.90;100.00
20793;BME280;10556;-33.662;151.094;2024-01-27T11:06:27;98403.28;;;21.93;100.00
20793;BME280;10556;-33.662;151.094;2024-01-27T11:11:32;98401.03;;;21.90;100.00
20793;BME280;10556;-33.662;151.094;2024-01-27T11:16:36;98414.38;;;21.87;100.00
20793;BME280;10556;-33.662;151.094;2024-01-27T11:21:39;98413.72;;;21.85;100.00
20793;BME280;10556;-33.662;151.094;2024-01-27T11:26:41;98418.97;;;21.77;100.00
20793;BME280;10556;-33.662;151.094;2024-01-27T11:31:46;98420.91;;;21.74;100.00
20793;BME280;10556;-33.662;151.094;2024-01-27T11:36:49;98411.91;;;21.62;100.00
20793;BME280;10556;-33.662;151.094;2024-01-27T11:41:51;98405.69;;;21.33;100.00
20793;BME280;10556;-33.662;151.094;2024-01-27T11:46:56;98416.44;;;21.05;100.00
20793;BME280;10556;-33.662;151.094;2024-01-27T11:51:58;98411.31;;;20.81;100.00
20793;BME280;10556;-33.662;151.094;2024-01-27T11:57:02;98420.06;;;20.48;100.00
20793;BME280;10556;-33.662;151.094;2024-01-27T12:02:09;98410.13;;;20.11;100.00
20793;BME280;10556;-33.662;151.094;2024-01-27T12:07:11;98420.47;;;19.94;100.00
20793;BME280;10556;-33.662;151.094;2024-01-27T12:12:14;98428.16;;;19.78;100.00
20793;BME280;10556;-33.662;151.094;2024-01-27T12:17:20;98440.97;;;19.88;100.00
20793;BME280;10556;-33.662;151.094;2024-01-27T12:22:24;98444.38;;;19.96;100.00
20793;BME280;10556;-33.662;151.094;2024-01-27T12:27:31;98444.38;;;19.96;100.00
20793;BME280;10556;-33.662;151.094;2024-01-27T12:32:35;98421.56;;;19.76;100.00
20793;BME280;10556;-33.662;151.094;2024-01-27T12:37:37;98417.72;;;19.46;100.00
20793;BME280;10556;-33.662;151.094;2024-01-27T12:42:40;98414.31;;;19.45;100.00
20793;BME280;10556;-33.662;151.094;2024-01-27T12:47:44;98419.91;;;19.33;100.00
20793;BME280;10556;-33.662;151.094;2024-01-27T12:52:47;98423.13;;;19.35;100.00
20793;BME280;10556;-33.662;151.094;2024-01-27T12:57:49;98413.16;;;19.14;100.00
20793;BME280;10556;-33.662;151.094;2024-01-27T13:02:54;98402.81;;;19.06;100.00
20793;BME280;10556;-33.662;151.094;2024-01-27T13:07:56;98391.38;;;19.08;100.00
20793;BME280;10556;-33.662;151.094;2024-01-27T13:12:59;98385.03;;;19.03;100.00
20793;BME280;10556;-33.662;151.094;2024-01-27T13:18:03;98382.34;;;19.12;100.00
20793;BME280;10556;-33.662;151.094;2024-01-27T13:23:06;98369.84;;;19.00;100.00
20793;BME280;10556;-33.662;151.094;2024-01-27T13:28:09;98350.06;;;18.83;100.00
20793;BME280;10556;-33.662;151.094;2024-01-27T13:33:13;98359.44;;;18.58;100.00
20793;BME280;10556;-33.662;151.094;2024-01-27T13:38:16;98365.41;;;18.58;100.00
20793;BME280;10556;-33.662;151.094;2024-01-27T13:43:18;98368.94;;;18.57;100.00
20793;BME280;10556;-33.662;151.094;2024-01-27T13:48:26;98370.94;;;18.46;100.00
20793;BME280;10556;-33.662;151.094;2024-01-27T13:53:31;98379.56;;;18.54;100.00
20793;BME280;10556;-33.662;151.094;2024-01-27T13:58:33;98363.28;;;18.54;100.00
20793;BME280;10556;-33.662;151.094;2024-01-27T14:03:38;98353.78;;;18.37;100.00
20793;BME280;10556;-33.662;151.094;2024-01-27T14:08:41;98351.38;;;18.17;100.00
20793;BME280;10556;-33.662;151.094;2024-01-27T14:13:44;98341.03;;;18.35;100.00
20793;BME280;10556;-33.662;151.094;2024-01-27T14:18:48;98331.53;;;18.36;100.00
20793;BME280;10556;-33.662;151.094;2024-01-27T14:23:51;98336.31;;;18.30;100.00
20793;BME280;10556;-33.662;151.094;2024-01-27T14:28:54;98336.41;;;18.21;100.00
20793;BME280;10556;-33.662;151.094;2024-01-27T14:33:58;98329.75;;;18.18;100.00
20793;BME280;10556;-33.662;151.094;2024-01-27T14:39:01;98325.81;;;18.06;100.00
20793;BME280;10556;-33.662;151.094;2024-01-27T14:44:04;98328.84;;;17.84;100.00
20793;BME280;10556;-33.662;151.094;2024-01-27T14:49:08;98330.22;;;18.14;100.00
20793;BME280;10556;-33.662;151.094;2024-01-27T14:54:11;98328.31;;;18.16;100.00
20793;BME280;10556;-33.662;151.094;2024-01-27T14:59:14;98328.03;;;17.83;100.00
20793;BME280;10556;-33.662;151.094;2024-01-27T15:04:18;98322.78;;;17.75;100.00
20793;BME280;10556;-33.662;151.094;2024-01-27T15:09:24;98320.50;;;17.72;100.00
20793;BME280;10556;-33.662;151.094;2024-01-27T15:14:27;98325.16;;;17.69;100.00
20793;BME280;10556;-33.662;151.094;2024-01-27T15:19:31;98318.00;;;17.80;100.00
20793;BME280;10556;-33.662;151.094;2024-01-27T15:24:34;98325.47;;;17.83;100.00
20793;BME280;10556;-33.662;151.094;2024-01-27T15:29:36;98330.25;;;17.78;100.00
20793;BME280;10556;-33.662;151.094;2024-01-27T15:34:41;98334.88;;;17.93;100.00
20793;BME280;10556;-33.662;151.094;2024-01-27T15:39:44;98335.44;;;18.04;100.00
20793;BME280;10556;-33.662;151.094;2024-01-27T15:44:46;98335.91;;;18.00;100.00
20793;BME280;10556;-33.662;151.094;2024-01-27T15:49:51;98339.22;;;17.92;100.00
20793;BME280;10556;-33.662;151.094;2024-01-27T15:54:53;98335.66;;;17.75;100.00
20793;BME280;10556;-33.662;151.094;2024-01-27T15:59:56;98331.50;;;17.74;100.00
20793;BME280;10556;-33.662;151.094;2024-01-27T16:05:00;98341.88;;;17.82;100.00
20793;BME280;10556;-33.662;151.094;2024-01-27T16:10:03;98331.84;;;17.79;100.00
20793;BME280;10556;-33.662;151.094;2024-01-27T16:15:07;98337.53;;;17.83;100.00
20793;BME280;10556;-33.662;151.094;2024-01-27T16:20:12;98342.44;;;17.94;100.00
20793;BME280;10556;-33.662;151.094;2024-01-27T16:25:15;98326.97;;;17.94;100.00
20793;BME280;10556;-33.662;151.094;2024-01-27T16:30:17;98323.91;;;17.91;100.00
20793;BME280;10556;-33.662;151.094;2024-01-27T16:35:25;98326.97;;;17.94;100.00
20793;BME280;10556;-33.662;151.094;2024-01-27T16:40:27;98313.72;;;17.89;100.00
20793;BME280;10556;-33.662;151.094;2024-01-27T16:45:30;98313.56;;;18.08;100.00
20793;BME280;10556;-33.662;151.094;2024-01-27T16:50:34;98309.31;;;17.99;100.00
20793;BME280;10556;-33.662;151.094;2024-01-27T16:55:38;98309.19;;;17.83;100.00
20793;BME280;10556;-33.662;151.094;2024-01-27T17:00:41;98316.41;;;17.52;100.00
20793;BME280;10556;-33.662;151.094;2024-01-27T17:05:55;98308.09;;;17.40;100.00
20793;BME280;10556;-33.662;151.094;2024-01-27T17:10:58;98306.34;;;17.14;100.00
20793;BME280;10556;-33.662;151.094;2024-01-27T17:16:01;98301.53;;;17.46;100.00
20793;BME280;10556;-33.662;151.094;2024-01-27T17:21:06;98306.59;;;17.83;100.00
20793;BME280;10556;-33.662;151.094;2024-01-27T17:26:08;98306.00;;;17.89;100.00
20793;BME280;10556;-33.662;151.094;2024-01-27T17:31:11;98323.47;;;17.60;100.00
20793;BME280;10556;-33.662;151.094;2024-01-27T17:36:15;98336.13;;;17.43;100.00
20793;BME280;10556;-33.662;151.094;2024-01-27T17:41:17;98330.09;;;17.53;100.00
20793;BME280;10556;-33.662;151.094;2024-01-27T17:46:20;98337.69;;;17.54;100.00
20793;BME280;10556;-33.662;151.094;2024-01-27T17:51:25;98348.13;;;17.53;100.00
20793;BME280;10556;-33.662;151.094;2024-01-27T17:56:27;98349.53;;;17.47;100.00
20793;BME280;10556;-33.662;151.094;2024-01-27T18:01:29;98354.63;;;17.29;100.00
20793;BME280;10556;-33.662;151.094;2024-01-27T18:06:34;98345.41;;;17.27;100.00
20793;BME280;10556;-33.662;151.094;2024-01-27T18:11:36;98355.47;;;17.48;100.00
20793;BME280;10556;-33.662;151.094;2024-01-27T18:16:39;98376.31;;;17.64;100.00
20793;BME280;10556;-33.662;151.094;2024-01-27T18:21:43;98383.22;;;17.63;100.00
20793;BME280;10556;-33.662;151.094;2024-01-27T18:26:46;98389.72;;;17.58;100.00
20793;BME280;10556;-33.662;151.094;2024-01-27T18:31:48;98399.63;;;17.62;100.00
20793;BME280;10556;-33.662;151.094;2024-01-27T18:36:53;98408.56;;;17.68;100.00
20793;BME280;10556;-33.662;151.094;2024-01-27T18:41:55;98408.25;;;17.43;100.00
20793;BME280;10556;-33.662;151.094;2024-01-27T18:46:59;98427.03;;;17.26;100.00
20793;BME280;10556;-33.662;151.094;2024-01-27T18:52:03;98435.03;;;17.51;100.00
20793;BME280;10556;-33.662;151.094;2024-01-27T18:57:06;98449.50;;;17.71;100.00
20793;BME280;10556;-33.662;151.094;2024-01-27T19:02:09;98456.94;;;18.19;100.00
20793;BME280;10556;-33.662;151.094;2024-01-27T19:07:13;98466.22;;;18.47;100.00
20793;BME280;10556;-33.662;151.094;2024-01-27T19:12:16;98480.72;;;18.58;100.00
20793;BME280;10556;-33.662;151.094;2024-01-27T19:17:18;98494.78;;;18.63;100.00
20793;BME280;10556;-33.662;151.094;2024-01-27T19:22:23;98504.44;;;18.61;100.00
20793;BME280;10556;-33.662;151.094;2024-01-27T19:27:25;98518.91;;;18.54;100.00
20793;BME280;10556;-33.662;151.094;2024-01-27T19:32:28;98533.25;;;18.39;100.00
20793;BME280;10556;-33.662;151.094;2024-01-27T19:37:32;98546.81;;;18.41;100.00
20793;BME280;10556;-33.662;151.094;2024-01-27T19:42:35;98546.88;;;18.49;100.00
20793;BME280;10556;-33.662;151.094;2024-01-27T19:47:37;98542.78;;;18.56;100.00
20793;BME280;10556;-33.662;151.094;2024-01-27T19:52:42;98562.28;;;18.68;100.00
20793;BME280;10556;-33.662;151.094;2024-01-27T19:57:44;98561.88;;;18.81;100.00
20793;BME280;10556;-33.662;151.094;2024-01-27T20:02:46;98557.47;;;18.91;100.00
20793;BME280;10556;-33.662;151.094;2024-01-27T20:07:51;98568.97;;;18.97;100.00
20793;BME280;10556;-33.662;151.094;2024-01-27T20:12:54;98582.56;;;18.99;100.00
20793;BME280;10556;-33.662;151.094;2024-01-27T20:17:57;98584.69;;;19.03;100.00
20793;BME280;10556;-33.662;151.094;2024-01-27T20:23:01;98598.53;;;19.20;100.00
20793;BME280;10556;-33.662;151.094;2024-01-27T20:28:04;98590.09;;;19.53;100.00
20793;BME280;10556;-33.662;151.094;2024-01-27T20:33:07;98598.56;;;19.89;100.00
20793;BME280;10556;-33.662;151.094;2024-01-27T20:38:11;98608.03;;;20.15;100.00
20793;BME280;10556;-33.662;151.094;2024-01-27T20:43:14;98626.78;;;20.09;100.00
20793;BME280;10556;-33.662;151.094;2024-01-27T20:48:16;98621.53;;;20.26;100.00
20793;BME280;10556;-33.662;151.094;2024-01-27T20:53:21;98618.38;;;20.07;100.00
20793;BME280;10556;-33.662;151.094;2024-01-27T20:58:24;98630.13;;;20.01;100.00
20793;BME280;10556;-33.662;151.094;2024-01-27T21:03:27;98640.09;;;19.88;100.00
20793;BME280;10556;-33.662;151.094;2024-01-27T21:08:31;98645.47;;;19.94;100.00
20793;BME280;10556;-33.662;151.094;2024-01-27T21:13:34;98658.94;;;20.06;100.00
20793;BME280;10556;-33.662;151.094;2024-01-27T21:18:36;98668.47;;;20.31;100.00
20793;BME280;10556;-33.662;151.094;2024-01-27T21:23:40;98680.59;;;20.31;100.00
20793;BME280;10556;-33.662;151.094;2024-01-27T21:28:44;98695.75;;;20.26;100.00
20793;BME280;10556;-33.662;151.094;2024-01-27T21:33:47;98703.56;;;20.34;100.00
20793;BME280;10556;-33.662;151.094;2024-01-27T21:38:51;98717.88;;;20.46;100.00
20793;BME280;10556;-33.662;151.094;2024-01-27T21:43:53;98724.94;;;20.70;100.00
20793;BME280;10556;-33.662;151.094;2024-01-27T21:48:56;98730.81;;;20.80;100.00
20793;BME280;10556;-33.662;151.094;2024-01-27T21:54:00;98733.88;;;20.75;100.00
20793;BME280;10556;-33.662;151.094;2024-01-27T21:59:03;98744.56;;;21.14;100.00
20793;BME280;10556;-33.662;151.094;2024-01-27T22:04:06;98748.66;;;21.41;100.00
20793;BME280;10556;-33.662;151.094;2024-01-27T22:09:13;98758.09;;;21.74;100.00
20793;BME280;10556;-33.662;151.094;2024-01-27T22:14:16;98770.41;;;21.89;100.00
20793;BME280;10556;-33.662;151.094;2024-01-27T22:19:18;98773.34;;;22.18;100.00
20793;BME280;10556;-33.662;151.094;2024-01-27T22:24:22;98761.28;;;22.41;100.00
20793;BME280;10556;-33.662;151.094;2024-01-27T22:29:25;98771.91;;;22.79;100.00
20793;BME280;10556;-33.662;151.094;2024-01-27T22:34:27;98776.91;;;22.96;100.00
20793;BME280;10556;-33.662;151.094;2024-01-27T22:39:31;98780.00;;;22.92;100.00
20793;BME280;10556;-33.662;151.094;2024-01-27T22:44:37;98782.31;;;23.18;100.00
20793;BME280;10556;-33.662;151.094;2024-01-27T22:49:39;98788.34;;;23.41;100.00
20793;BME280;10556;-33.662;151.094;2024-01-27T22:54:43;98780.38;;;23.42;100.00
20793;BME280;10556;-33.662;151.094;2024-01-27T22:59:46;98789.00;;;23.43;100.00
20793;BME280;10556;-33.662;151.094;2024-01-27T23:04:48;98798.00;;;23.63;100.00
20793;BME280;10556;-33.662;151.094;2024-01-27T23:09:53;98807.75;;;23.61;100.00
20793;BME280;10556;-33.662;151.094;2024-01-27T23:14:55;98807.09;;;23.67;100.00
20793;BME280;10556;-33.662;151.094;2024-01-27T23:19:58;98803.59;;;23.98;100.00
20793;BME280;10556;-33.662;151.094;2024-01-27T23:25:02;98814.41;;;24.76;100.00
20793;BME280;10556;-33.662;151.094;2024-01-27T23:30:06;98817.94;;;25.84;100.00
20793;BME280;10556;-33.662;151.094;2024-01-27T23:35:09;98819.44;;;26.70;100.00
20793;BME280;10556;-33.662;151.094;2024-01-27T23:40:13;98814.06;;;26.51;100.00
20793;BME280;10556;-33.662;151.094;2024-01-27T23:45:16;98797.31;;;27.14;100.00
20793;BME280;10556;-33.662;151.094;2024-01-27T23:50:19;98806.13;;;28.66;89.13
20793;BME280;10556;-33.662;151.094;2024-01-27T23:55:26;98815.53;;;28.99;86.72
